Time,TemperatureF,DewpointF,PressureIn,WindDirection,WindDirectionDegrees,WindSpeedMPH,WindSpeedGustMPH,Humidity,HourlyPrecipIn,Conditions,Clouds,dailyrainin,SoftwareType,DateUTC
2013-01-22 00:01:00,17.8,7.7,29.94,WSW,247,0.0,0.0,64,0.00,OVC,OVC,0.00,WeatherDisplay:10.34,2013-01-22 05:01:00,
2013-01-22 00:03:00,17.8,7.7,29.94,WSW,247,0.0,0.0,64,0.00,OVC,OVC,0.00,WeatherDisplay:10.34,2013-01-22 05:03:00,
2013-01-22 00:09:00,18.1,8.3,29.94,WSW,247,0.0,0.0,65,0.00,OVC,OVC,0.00,WeatherDisplay:10.34,2013-01-22 05:09:00,
2013-01-22 00:15:00,18.3,8.5,29.95,WSW,247,0.0,0.0,65,0.00,OVC,OVC,0.00,WeatherDisplay:10.34,2013-01-22 05:15:00,
2013-01-22 00:20:00,18.0,7.8,29.95,WSW,247,0.0,0.0,64,0.00,OVC,OVC,0.00,WeatherDisplay:10.34,2013-01-22 05:20:00,
2013-01-22 00:21:00,17.8,7.7,29.95,WSW,247,0.0,0.0,64,0.00,OVC,OVC,0.00,WeatherDisplay:10.34,2013-01-22 05:21:00,
2013-01-22 00:26:00,17.6,7.5,29.95,WSW,247,0.0,0.0,64,0.00,OVC,OVC,0.00,WeatherDisplay:10.34,2013-01-22 05:26:00,
2013-01-22 00:31:00,17.4,7.3,29.95,WSW,247,0.0,0.0,64,0.00,OVC,OVC,0.00,WeatherDisplay:10.34,2013-01-22 05:31:00,
2013-01-22 00:36:00,17.2,7.1,29.95,WSW,247,0.0,3.0,64,0.00,OVC,OVC,0.00,WeatherDisplay:10.34,2013-01-22 05:36:00,
2013-01-22 00:41:00,17.2,7.1,29.95,WSW,247,0.0,3.0,64,0.00,OVC,OVC,0.00,WeatherDisplay:10.34,2013-01-22 05:41:00,
2013-01-22 00:46:00,17.2,7.1,29.95,South,181,0.0,2.0,64,0.04,RA,RA,0.04,WeatherDisplay:10.34,2013-01-22 05:46:00,
2013-01-22 00:51:00,17.4,7.7,29.95,South,181,0.0,0.0,65,0.04,RA,RA,0.04,WeatherDisplay:10.34,2013-01-22 05:51:00,
2013-01-22 00:56:00,17.2,7.5,29.95,South,181,0.0,0.0,65,0.04,OVC,OVC,0.04,WeatherDisplay:10.34,2013-01-22 05:56:00,
2013-01-22 01:01:00,17.1,7.3,29.95,South,179,0.0,2.0,65,0.04,OVC,OVC,0.04,WeatherDisplay:10.34,2013-01-22 06:01:00,
2013-01-22 01:06:00,16.9,7.1,29.95,South,179,0.0,2.0,65,0.04,OVC,OVC,0.04,WeatherDisplay:10.34,2013-01-22 06:06:00,
2013-01-22 01:11:00,16.7,7.0,29.95,SSE,155,0.0,5.0,65,0.04,OVC,OVC,0.04,WeatherDisplay:10.34,2013-01-22 06:11:00,
2013-01-22 01:16:00,16.5,6.8,29.95,SSE,153,0.0,0.0,65,0.08,RA,RA,0.08,WeatherDisplay:10.34,2013-01-22 06:16:00,
2013-01-22 01:21:00,16.5,7.1,29.95,SSE,153,0.0,0.0,66,0.12,RA,RA,0.12,WeatherDisplay:10.34,2013-01-22 06:21:00,
2013-01-22 01:26:00,16.7,7.3,29.95,SSE,152,0.0,0.0,66,0.16,RA,RA,0.16,WeatherDisplay:10.34,2013-01-22 06:26:00,
2013-01-22 01:31:00,17.1,8.0,29.92,SSE,152,0.0,0.0,67,0.16,RA,RA,0.16,WeatherDisplay:10.34,2013-01-22 06:31:00,
2013-01-22 01:36:00,16.9,7.5,29.92,SSE,152,0.0,0.0,66,0.20,RA,RA,0.20,WeatherDisplay:10.34,2013-01-22 06:36:00,
2013-01-22 01:41:00,16.7,7.3,29.92,SSE,152,0.0,0.0,66,0.20,RA,RA,0.20,WeatherDisplay:10.34,2013-01-22 06:41:00,
2013-01-22 01:46:00,16.5,6.8,29.95,ESE,115,0.0,3.0,65,0.20,RA,RA,0.24,WeatherDisplay:10.34,2013-01-22 06:46:00,
2013-01-22 01:51:00,16.3,6.6,29.95,ESE,114,0.0,0.0,65,0.20,RA,RA,0.24,WeatherDisplay:10.34,2013-01-22 06:51:00,
2013-01-22 01:56:00,16.3,6.6,29.95,East,88,0.0,0.0,65,0.20,OVC,OVC,0.24,WeatherDisplay:10.34,2013-01-22 06:56:00,
2013-01-22 02:01:00,16.0,6.3,29.92,ENE,75,0.0,3.0,65,0.20,OVC,OVC,0.24,WeatherDisplay:10.34,2013-01-22 07:01:00,
2013-01-22 02:06:00,16.0,6.6,29.92,NE,54,0.0,3.0,66,0.20,OVC,OVC,0.24,WeatherDisplay:10.34,2013-01-22 07:06:00,
2013-01-22 02:11:00,16.2,6.8,29.92,NE,55,0.0,2.0,66,0.24,RA,RA,0.28,WeatherDisplay:10.34,2013-01-22 07:11:00,
2013-01-22 02:16:00,16.3,7.0,29.96,NE,55,0.0,0.0,66,0.20,RA,RA,0.28,WeatherDisplay:10.34,2013-01-22 07:16:00,
2013-01-22 02:21:00,16.0,6.3,29.96,NE,55,0.0,3.0,65,0.16,OVC,OVC,0.28,WeatherDisplay:10.34,2013-01-22 07:21:00,
2013-01-22 02:26:00,15.8,5.8,29.96,NE,55,0.0,0.0,64,0.12,OVC,OVC,0.28,WeatherDisplay:10.34,2013-01-22 07:26:00,
2013-01-22 02:31:00,15.6,5.6,29.96,NE,55,0.0,0.0,64,0.12,OVC,OVC,0.28,WeatherDisplay:10.34,2013-01-22 07:31:00,
2013-01-22 02:36:00,15.4,5.4,29.96,NE,55,0.0,0.0,64,0.08,OVC,OVC,0.28,WeatherDisplay:10.34,2013-01-22 07:36:00,
2013-01-22 02:41:00,15.6,5.6,29.96,NE,55,0.0,0.0,64,0.08,OVC,OVC,0.28,WeatherDisplay:10.34,2013-01-22 07:41:00,
2013-01-22 02:46:00,15.6,5.9,29.93,NE,55,0.0,0.0,65,0.04,OVC,OVC,0.28,WeatherDisplay:10.34,2013-01-22 07:46:00,
2013-01-22 02:51:00,15.3,5.3,29.93,NE,55,0.0,0.0,64,0.04,OVC,OVC,0.28,WeatherDisplay:10.34,2013-01-22 07:51:00,
2013-01-22 02:56:00,15.1,5.1,29.93,NE,55,0.0,0.0,64,0.04,OVC,OVC,0.28,WeatherDisplay:10.34,2013-01-22 07:56:00,
2013-01-22 03:01:00,14.9,5.2,29.93,NE,55,0.0,2.0,65,0.04,OVC,OVC,0.28,WeatherDisplay:10.34,2013-01-22 08:01:00,
2013-01-22 03:06:00,14.7,5.1,29.93,NE,55,0.0,0.0,65,0.08,RA,RA,0.31,WeatherDisplay:10.34,2013-01-22 08:06:00,
2013-01-22 03:11:00,14.5,4.9,29.93,NE,55,0.0,2.0,65,0.04,RA,RA,0.31,WeatherDisplay:10.34,2013-01-22 08:11:00,
2013-01-22 03:16:00,14.5,4.9,29.93,NE,55,0.0,0.0,65,0.04,OVC,OVC,0.31,WeatherDisplay:10.34,2013-01-22 08:16:00,
2013-01-22 03:21:00,14.7,4.7,29.93,NE,55,0.0,0.0,64,0.04,OVC,OVC,0.31,WeatherDisplay:10.34,2013-01-22 08:21:00,
2013-01-22 03:26:00,14.4,4.4,29.93,NE,55,0.0,2.0,64,0.04,OVC,OVC,0.31,WeatherDisplay:10.34,2013-01-22 08:26:00,
2013-01-22 03:31:00,14.7,4.7,29.93,NE,55,0.0,0.0,64,0.04,OVC,OVC,0.31,WeatherDisplay:10.34,2013-01-22 08:31:00,
2013-01-22 03:36:00,14.7,4.4,29.93,NE,55,0.0,0.0,63,0.04,OVC,OVC,0.31,WeatherDisplay:10.34,2013-01-22 08:36:00,
2013-01-22 03:41:00,14.7,4.4,29.93,NE,55,0.0,2.0,63,0.04,OVC,OVC,0.31,WeatherDisplay:10.34,2013-01-22 08:41:00,
2013-01-22 03:46:00,14.9,4.6,29.93,NE,55,0.0,0.0,63,0.08,RA,RA,0.35,WeatherDisplay:10.34,2013-01-22 08:46:00,
2013-01-22 03:51:00,14.7,4.0,29.93,NE,55,0.0,0.0,62,0.08,RA,RA,0.35,WeatherDisplay:10.34,2013-01-22 08:51:00,
2013-01-22 03:56:00,14.4,3.4,29.93,NE,55,0.0,0.0,61,0.12,RA,RA,0.39,WeatherDisplay:10.34,2013-01-22 08:56:00,
2013-01-22 04:01:00,14.2,3.2,29.93,NE,55,0.0,0.0,61,0.12,RA,RA,0.39,WeatherDisplay:10.34,2013-01-22 09:01:00,
2013-01-22 04:06:00,14.2,2.8,29.94,NE,55,0.0,3.0,60,0.08,BKN,BKN,0.39,WeatherDisplay:10.34,2013-01-22 09:06:00,
2013-01-22 04:11:00,14.4,3.0,29.94,NE,56,0.0,3.0,60,0.08,BKN,BKN,0.39,WeatherDisplay:10.34,2013-01-22 09:11:00,
2013-01-22 04:16:00,14.2,2.5,29.94,NE,56,0.0,0.0,59,0.08,BKN,BKN,0.39,WeatherDisplay:10.34,2013-01-22 09:16:00,
2013-01-22 04:21:00,13.6,1.9,29.94,NE,55,0.0,0.0,59,0.12,RA,RA,0.43,WeatherDisplay:10.34,2013-01-22 09:21:00,
2013-01-22 04:26:00,13.5,1.8,29.94,NE,56,0.0,3.0,59,0.12,RA,RA,0.43,WeatherDisplay:10.34,2013-01-22 09:26:00,
2013-01-22 04:31:00,13.5,1.8,29.94,NE,56,0.0,3.0,59,0.12,BKN,BKN,0.43,WeatherDisplay:10.34,2013-01-22 09:31:00,
2013-01-22 04:36:00,13.3,1.6,29.94,NE,56,0.0,0.0,59,0.12,BKN,BKN,0.43,WeatherDisplay:10.34,2013-01-22 09:36:00,
2013-01-22 04:41:00,13.1,1.4,29.94,NE,56,0.0,0.0,59,0.12,BKN,BKN,0.43,WeatherDisplay:10.34,2013-01-22 09:41:00,
2013-01-22 04:47:00,13.1,1.4,29.94,NE,56,0.0,2.0,59,0.08,BKN,BKN,0.43,WeatherDisplay:10.34,2013-01-22 09:47:00,
2013-01-22 04:52:00,13.5,1.8,29.94,NE,39,0.0,0.0,59,0.08,BKN,BKN,0.43,WeatherDisplay:10.34,2013-01-22 09:52:00,
2013-01-22 04:57:00,13.3,1.6,29.94,NE,38,0.0,3.0,59,0.04,BKN,BKN,0.43,WeatherDisplay:10.34,2013-01-22 09:57:00,
2013-01-22 05:02:00,13.5,1.8,29.94,NE,38,0.0,0.0,59,0.04,CLR,CLR,0.43,WeatherDisplay:10.34,2013-01-22 10:02:00,
2013-01-22 05:07:00,13.5,1.8,29.94,NNE,30,0.0,0.0,59,0.04,CLR,CLR,0.43,WeatherDisplay:10.34,2013-01-22 10:07:00,
2013-01-22 05:12:00,13.6,1.9,29.94,NNE,30,0.0,0.0,59,0.04,CLR,CLR,0.43,WeatherDisplay:10.34,2013-01-22 10:12:00,
2013-01-22 05:17:00,13.6,1.9,29.94,NNE,30,0.0,0.0,59,0.04,CLR,CLR,0.43,WeatherDisplay:10.34,2013-01-22 10:17:00,
2013-01-22 05:22:00,13.6,1.9,29.94,North,10,0.0,0.0,59,0.00,CLR,CLR,0.43,WeatherDisplay:10.34,2013-01-22 10:22:00,
2013-01-22 05:27:00,13.8,2.1,29.94,North,10,0.0,0.0,59,0.00,CLR,CLR,0.43,WeatherDisplay:10.34,2013-01-22 10:27:00,
2013-01-22 05:32:00,13.5,1.8,29.94,North,11,3.0,6.0,59,0.00,CLR,CLR,0.43,WeatherDisplay:10.34,2013-01-22 10:32:00,
2013-01-22 05:37:00,13.5,1.8,29.94,North,11,0.0,0.0,59,0.00,CLR,CLR,0.43,WeatherDisplay:10.34,2013-01-22 10:37:00,
2013-01-22 05:43:00,13.6,1.9,29.94,NNE,30,0.0,3.0,59,0.00,CLR,CLR,0.43,WeatherDisplay:10.34,2013-01-22 10:43:00,
2013-01-22 05:48:00,13.6,1.9,29.94,North,351,0.0,2.0,59,0.00,CLR,CLR,0.43,WeatherDisplay:10.34,2013-01-22 10:48:00,
2013-01-22 05:53:00,13.6,1.9,29.94,North,0,0.0,3.0,59,0.00,CLR,CLR,0.43,WeatherDisplay:10.34,2013-01-22 10:53:00,
2013-01-22 05:58:00,13.3,1.6,29.94,NNE,18,4.0,6.0,59,0.00,CLR,CLR,0.43,WeatherDisplay:10.34,2013-01-22 10:58:00,
2013-01-22 06:03:00,13.3,1.6,29.94,North,5,4.0,4.0,59,0.00,OVC,OVC,0.43,WeatherDisplay:10.34,2013-01-22 11:03:00,
2013-01-22 06:08:00,13.1,1.4,29.94,NE,43,3.0,5.0,59,0.00,OVC,OVC,0.43,WeatherDisplay:10.34,2013-01-22 11:08:00,
2013-01-22 06:13:00,13.3,1.6,29.94,North,3,3.0,5.0,59,0.00,OVC,OVC,0.43,WeatherDisplay:10.34,2013-01-22 11:13:00,
2013-01-22 06:18:00,13.3,1.6,29.94,North,10,3.0,8.0,59,0.00,OVC,OVC,0.43,WeatherDisplay:10.34,2013-01-22 11:18:00,
2013-01-22 06:23:00,13.3,1.6,29.94,NNE,30,0.0,0.0,59,0.00,OVC,OVC,0.43,WeatherDisplay:10.34,2013-01-22 11:23:00,
2013-01-22 06:28:00,13.1,1.4,29.94,NNE,22,0.0,2.0,59,0.00,OVC,OVC,0.43,WeatherDisplay:10.34,2013-01-22 11:28:00,
2013-01-22 06:33:00,12.6,0.9,29.94,NNE,21,0.0,0.0,59,0.00,OVC,OVC,0.43,WeatherDisplay:10.34,2013-01-22 11:33:00,
2013-01-22 06:38:00,12.6,0.9,29.94,NNW,343,0.0,3.0,59,0.00,OVC,OVC,0.43,WeatherDisplay:10.34,2013-01-22 11:38:00,
2013-01-22 06:43:00,12.6,0.9,29.94,NNE,24,0.0,0.0,59,0.00,OVC,OVC,0.43,WeatherDisplay:10.34,2013-01-22 11:43:00,
2013-01-22 06:48:00,12.4,0.8,29.94,NNE,17,0.0,3.0,59,0.00,OVC,OVC,0.43,WeatherDisplay:10.34,2013-01-22 11:48:00,
2013-01-22 06:53:00,12.4,0.8,29.94,NNE,18,0.0,0.0,59,0.00,OVC,OVC,0.43,WeatherDisplay:10.34,2013-01-22 11:53:00,
2013-01-22 06:58:00,12.4,0.8,29.94,NNE,19,0.0,3.0,59,0.00,OVC,OVC,0.43,WeatherDisplay:10.34,2013-01-22 11:58:00,
2013-01-22 07:03:00,12.6,0.9,29.94,North,356,3.0,5.0,59,0.00,SCT,SCT,0.43,WeatherDisplay:10.34,2013-01-22 12:03:00,
2013-01-22 07:08:00,12.6,0.9,29.94,North,351,4.0,7.0,59,0.00,SCT,SCT,0.43,WeatherDisplay:10.34,2013-01-22 12:08:00,
2013-01-22 07:13:00,12.6,0.9,29.94,North,5,4.0,6.0,59,0.00,SCT,SCT,0.43,WeatherDisplay:10.34,2013-01-22 12:13:00,
2013-01-22 07:18:00,12.6,0.9,29.94,North,0,3.0,3.0,59,0.00,SCT,SCT,0.43,WeatherDisplay:10.34,2013-01-22 12:18:00,
2013-01-22 07:23:00,12.6,0.9,29.94,North,0,0.0,0.0,59,0.00,SCT,SCT,0.43,WeatherDisplay:10.34,2013-01-22 12:23:00,
2013-01-22 07:28:00,12.2,0.6,29.94,North,356,0.0,0.0,59,0.00,SCT,SCT,0.43,WeatherDisplay:10.34,2013-01-22 12:28:00,
2013-01-22 07:33:00,11.7,0.1,29.98,North,356,0.0,0.0,59,0.00,SCT,SCT,0.43,WeatherDisplay:10.34,2013-01-22 12:33:00,
2013-01-22 07:38:00,11.1,-0.4,29.98,North,0,0.0,0.0,59,0.00,SCT,SCT,0.43,WeatherDisplay:10.34,2013-01-22 12:38:00,
2013-01-22 07:43:00,11.3,-0.3,29.98,North,0,0.0,0.0,59,0.00,SCT,SCT,0.43,WeatherDisplay:10.34,2013-01-22 12:43:00,
2013-01-22 07:48:00,11.3,-0.3,29.98,North,0,0.0,0.0,59,0.00,SCT,SCT,0.43,WeatherDisplay:10.34,2013-01-22 12:48:00,
2013-01-22 07:53:00,11.1,-0.4,29.98,North,0,0.0,0.0,59,0.00,SCT,SCT,0.43,WeatherDisplay:10.34,2013-01-22 12:53:00,
2013-01-22 07:58:00,11.1,-0.4,29.98,North,356,0.0,0.0,59,0.00,SCT,SCT,0.43,WeatherDisplay:10.34,2013-01-22 12:58:00,
2013-01-22 08:03:00,11.1,-0.4,29.98,North,356,0.0,0.0,59,0.00,BKN,BKN,0.43,WeatherDisplay:10.34,2013-01-22 13:03:00,
2013-01-22 08:08:00,11.1,-0.4,29.98,North,356,0.0,0.0,59,0.00,BKN,BKN,0.43,WeatherDisplay:10.34,2013-01-22 13:08:00,
2013-01-22 08:14:00,11.1,-0.4,29.98,North,356,0.0,0.0,59,0.00,BKN,BKN,0.43,WeatherDisplay:10.34,2013-01-22 13:14:00,
2013-01-22 08:19:00,11.5,-0.1,29.98,North,356,0.0,0.0,59,0.00,BKN,BKN,0.43,WeatherDisplay:10.34,2013-01-22 13:19:00,
2013-01-22 08:24:00,11.5,-0.1,29.98,North,0,0.0,0.0,59,0.00,BKN,BKN,0.43,WeatherDisplay:10.34,2013-01-22 13:24:00,
2013-01-22 08:29:00,11.7,0.1,29.98,North,0,0.0,0.0,59,0.00,BKN,BKN,0.43,WeatherDisplay:10.34,2013-01-22 13:29:00,
2013-01-22 08:34:00,11.8,0.2,29.98,North,356,0.0,0.0,59,0.00,BKN,BKN,0.43,WeatherDisplay:10.34,2013-01-22 13:34:00,
2013-01-22 08:39:00,12.4,0.8,29.98,North,356,0.0,0.0,59,0.04,RA,RA,0.47,WeatherDisplay:10.34,2013-01-22 13:39:00,
2013-01-22 08:44:00,12.9,1.3,29.98,North,0,0.0,0.0,59,0.04,RA,RA,0.47,WeatherDisplay:10.34,2013-01-22 13:44:00,
2013-01-22 08:49:00,12.7,1.1,29.98,NNW,328,0.0,0.0,59,0.04,BKN,BKN,0.47,WeatherDisplay:10.34,2013-01-22 13:49:00,
2013-01-22 08:54:00,13.1,1.4,29.98,NNW,328,0.0,2.0,59,0.04,BKN,BKN,0.47,WeatherDisplay:10.34,2013-01-22 13:54:00,
2013-01-22 08:59:00,13.1,1.4,29.98,NNW,328,0.0,0.0,59,0.04,BKN,BKN,0.47,WeatherDisplay:10.34,2013-01-22 13:59:00,
2013-01-22 09:04:00,13.1,1.4,29.98,NNW,327,0.0,0.0,59,0.04,CLR,CLR,0.47,WeatherDisplay:10.34,2013-01-22 14:04:00,
2013-01-22 09:09:00,13.6,1.9,29.98,North,9,0.0,2.0,59,0.04,CLR,CLR,0.47,WeatherDisplay:10.34,2013-01-22 14:09:00,
2013-01-22 09:14:00,14.0,1.9,29.98,North,10,0.0,0.0,58,0.04,CLR,CLR,0.47,WeatherDisplay:10.34,2013-01-22 14:14:00,
2013-01-22 09:19:00,14.4,2.3,29.98,North,10,0.0,0.0,58,0.04,CLR,CLR,0.47,WeatherDisplay:10.34,2013-01-22 14:19:00,
2013-01-22 09:24:00,14.5,2.1,29.98,North,10,0.0,0.0,57,0.04,CLR,CLR,0.47,WeatherDisplay:10.34,2013-01-22 14:24:00,
2013-01-22 09:29:00,14.7,2.2,29.98,NE,50,0.0,2.0,57,0.04,CLR,CLR,0.47,WeatherDisplay:10.34,2013-01-22 14:29:00,
2013-01-22 09:34:00,15.1,2.6,29.98,NE,38,3.0,5.0,57,0.04,CLR,CLR,0.47,WeatherDisplay:10.34,2013-01-22 14:34:00,
2013-01-22 09:40:00,15.3,2.3,29.98,North,351,0.0,5.0,56,0.00,CLR,CLR,0.47,WeatherDisplay:10.34,2013-01-22 14:40:00,
2013-01-22 09:45:00,15.6,2.7,29.98,North,351,0.0,0.0,56,0.00,CLR,CLR,0.47,WeatherDisplay:10.34,2013-01-22 14:45:00,
2013-01-22 09:51:00,15.8,2.5,29.98,NE,49,3.0,6.0,55,0.00,CLR,CLR,0.47,WeatherDisplay:10.34,2013-01-22 14:51:00,
2013-01-22 09:57:00,16.2,3.2,29.98,NNE,18,3.0,6.0,56,0.00,CLR,CLR,0.47,WeatherDisplay:10.34,2013-01-22 14:57:00,
2013-01-22 10:02:00,16.5,3.5,29.98,WSW,241,3.0,6.0,56,0.00,CLR,CLR,0.47,WeatherDisplay:10.34,2013-01-22 15:02:00,
2013-01-22 10:07:00,16.4,3.0,29.98,West,267,5.0,9.0,55,0.00,CLR,CLR,0.47,WeatherDisplay:10.34,2013-01-22 15:07:00,
2013-01-22 10:12:00,16.4,3.1,29.98,WNW,294,5.0,13.0,55,0.00,CLR,CLR,0.47,WeatherDisplay:10.34,2013-01-22 15:12:00,
2013-01-22 10:17:00,16.5,2.7,29.98,WSW,249,4.0,6.0,54,0.00,CLR,CLR,0.47,WeatherDisplay:10.34,2013-01-22 15:17:00,
2013-01-22 10:23:00,17.1,3.2,29.98,West,276,3.0,6.0,54,0.00,CLR,CLR,0.47,WeatherDisplay:10.34,2013-01-22 15:23:00,
2013-01-22 10:29:00,17.4,3.1,29.98,West,265,4.0,9.0,53,0.00,CLR,CLR,0.47,WeatherDisplay:10.34,2013-01-22 15:29:00,
2013-01-22 10:34:00,17.8,2.3,29.98,NNW,339,0.0,8.0,50,0.00,CLR,CLR,0.47,WeatherDisplay:10.34,2013-01-22 15:34:00,
2013-01-22 10:39:00,18.1,1.7,29.98,NNW,327,4.0,7.0,48,0.00,CLR,CLR,0.47,WeatherDisplay:10.34,2013-01-22 15:39:00,
2013-01-22 10:44:00,18.2,1.3,29.98,NNW,340,4.0,7.0,47,0.00,CLR,CLR,0.47,WeatherDisplay:10.34,2013-01-22 15:44:00,
2013-01-22 10:49:00,18.3,1.0,29.98,North,356,7.0,12.0,46,0.00,CLR,CLR,0.47,WeatherDisplay:10.34,2013-01-22 15:49:00,
2013-01-22 10:54:00,18.3,0.0,29.98,WSW,242,6.0,8.0,44,0.00,CLR,CLR,0.47,WeatherDisplay:10.34,2013-01-22 15:54:00,
2013-01-22 10:59:00,18.5,0.1,29.98,West,278,6.0,7.0,44,0.00,CLR,CLR,0.47,WeatherDisplay:10.34,2013-01-22 15:59:00,
2013-01-22 11:04:00,18.7,0.3,29.98,North,11,4.0,18.0,44,0.00,CLR,CLR,0.47,WeatherDisplay:10.34,2013-01-22 16:04:00,
2013-01-22 11:09:00,18.9,-1.5,29.98,WNW,289,4.0,7.0,40,0.00,CLR,CLR,0.47,WeatherDisplay:10.34,2013-01-22 16:09:00,
2013-01-22 11:14:00,18.8,-1.6,29.98,North,351,5.0,9.0,40,0.00,CLR,CLR,0.47,WeatherDisplay:10.34,2013-01-22 16:14:00,
2013-01-22 11:19:00,18.9,-2.6,29.98,WNW,289,5.0,7.0,38,0.00,CLR,CLR,0.47,WeatherDisplay:10.34,2013-01-22 16:19:00,
2013-01-22 11:24:00,19.0,-2.5,29.98,WNW,283,4.0,10.0,38,0.00,CLR,CLR,0.47,WeatherDisplay:10.34,2013-01-22 16:24:00,
2013-01-22 11:29:00,19.2,-2.8,29.97,North,8,7.0,12.0,37,0.00,CLR,CLR,0.47,WeatherDisplay:10.34,2013-01-22 16:29:00,
2013-01-22 11:34:00,19.2,-3.4,29.97,WNW,287,4.0,14.0,36,0.00,CLR,CLR,0.47,WeatherDisplay:10.34,2013-01-22 16:34:00,
2013-01-22 11:39:00,19.1,-3.6,29.98,NNE,32,6.0,12.0,36,0.00,CLR,CLR,0.47,WeatherDisplay:10.34,2013-01-22 16:39:00,
2013-01-22 11:44:00,19.2,-4.0,29.98,NNE,15,9.0,17.0,35,0.00,CLR,CLR,0.47,WeatherDisplay:10.34,2013-01-22 16:44:00,
2013-01-22 11:49:00,19.4,-3.8,29.98,NNE,29,4.0,10.0,35,0.00,CLR,CLR,0.47,WeatherDisplay:10.34,2013-01-22 16:49:00,
2013-01-22 11:54:00,19.4,-3.2,29.97,WSW,241,11.0,20.0,36,0.00,CLR,CLR,0.47,WeatherDisplay:10.34,2013-01-22 16:54:00,
2013-01-22 11:59:00,19.2,-3.4,29.97,NNE,24,11.0,20.0,36,0.00,CLR,CLR,0.47,WeatherDisplay:10.34,2013-01-22 16:59:00,
2013-01-22 12:04:00,19.0,-4.8,29.97,NNW,346,7.0,18.0,34,0.00,BKN,BKN,0.47,WeatherDisplay:10.34,2013-01-22 17:04:00,
2013-01-22 12:09:00,18.9,-4.9,29.97,NNW,335,10.0,38.0,34,0.00,BKN,BKN,0.47,WeatherDisplay:10.34,2013-01-22 17:09:00,
2013-01-22 12:14:00,18.7,-4.5,29.97,NNW,345,6.0,13.0,35,0.00,BKN,BKN,0.47,WeatherDisplay:10.34,2013-01-22 17:14:00,
2013-01-22 12:19:00,18.9,-4.3,29.97,WNW,288,7.0,13.0,35,0.00,BKN,BKN,0.47,WeatherDisplay:10.34,2013-01-22 17:19:00,
2013-01-22 12:24:00,19.2,-4.0,29.98,NNW,342,7.0,7.0,35,0.00,BKN,BKN,0.47,WeatherDisplay:10.34,2013-01-22 17:24:00,
2013-01-22 12:29:00,19.6,-3.7,29.97,ENE,62,7.0,8.0,35,0.00,BKN,BKN,0.47,WeatherDisplay:10.34,2013-01-22 17:29:00,
2013-01-22 12:34:00,19.8,-3.5,29.97,NNE,33,9.0,18.0,35,0.00,BKN,BKN,0.47,WeatherDisplay:10.34,2013-01-22 17:34:00,
2013-01-22 12:40:00,19.2,-4.0,29.97,WSW,247,7.0,12.0,35,0.00,BKN,BKN,0.47,WeatherDisplay:10.34,2013-01-22 17:40:00,
2013-01-22 12:45:00,18.5,-4.7,29.98,WSW,246,4.0,7.0,35,0.00,BKN,BKN,0.47,WeatherDisplay:10.34,2013-01-22 17:45:00,
2013-01-22 12:50:00,18.0,-5.1,29.98,NE,49,3.0,6.0,35,0.00,BKN,BKN,0.47,WeatherDisplay:10.34,2013-01-22 17:50:00,
2013-01-22 12:55:00,17.6,-5.5,29.98,NNW,341,4.0,9.0,35,0.00,BKN,BKN,0.47,WeatherDisplay:10.34,2013-01-22 17:55:00,
2013-01-22 13:00:00,18.0,-5.1,29.98,NNE,33,3.0,5.0,35,0.00,BKN,BKN,0.47,WeatherDisplay:10.34,2013-01-22 18:00:00,
2013-01-22 13:05:00,18.3,-4.9,29.98,NW,313,4.0,12.0,35,0.00,SCT,SCT,0.47,WeatherDisplay:10.34,2013-01-22 18:05:00,
2013-01-22 13:10:00,18.5,-4.6,29.98,West,278,11.0,22.0,35,0.00,SCT,SCT,0.47,WeatherDisplay:10.34,2013-01-22 18:10:00,
2013-01-22 13:15:00,18.5,-4.7,29.98,NNW,335,5.0,8.0,35,0.00,SCT,SCT,0.47,WeatherDisplay:10.34,2013-01-22 18:15:00,
2013-01-22 13:20:00,19.0,-4.2,29.98,NNE,33,6.0,12.0,35,0.00,SCT,SCT,0.47,WeatherDisplay:10.34,2013-01-22 18:20:00,
2013-01-22 13:25:00,19.4,-3.8,29.98,WNW,300,7.0,18.0,35,0.04,RA,RA,0.51,WeatherDisplay:10.34,2013-01-22 18:25:00,
2013-01-22 13:30:00,19.4,-3.8,29.98,South,174,3.0,7.0,35,0.04,RA,RA,0.51,WeatherDisplay:10.34,2013-01-22 18:30:00,
2013-01-22 13:35:00,19.4,-3.8,29.98,North,351,4.0,9.0,35,0.04,SCT,SCT,0.51,WeatherDisplay:10.34,2013-01-22 18:35:00,
2013-01-22 13:40:00,18.7,-4.5,29.98,NW,318,3.0,6.0,35,0.04,SCT,SCT,0.51,WeatherDisplay:10.34,2013-01-22 18:40:00,
2013-01-22 13:45:00,18.1,-5.0,30.01,WSW,247,7.0,9.0,35,0.04,SCT,SCT,0.51,WeatherDisplay:10.34,2013-01-22 18:45:00,
2013-01-22 13:50:00,17.8,-5.3,30.01,WSW,241,0.0,12.0,35,0.04,SCT,SCT,0.51,WeatherDisplay:10.34,2013-01-22 18:50:00,
2013-01-22 13:55:00,18.1,-4.5,30.01,NNW,347,4.0,9.0,36,0.04,SCT,SCT,0.51,WeatherDisplay:10.34,2013-01-22 18:55:00,
2013-01-22 14:00:00,18.5,-4.7,30.01,NW,312,5.0,10.0,35,0.04,SCT,SCT,0.51,WeatherDisplay:10.34,2013-01-22 19:00:00,
2013-01-22 14:05:00,18.9,-4.3,30.01,North,351,4.0,10.0,35,0.04,FEW,FEW,0.51,WeatherDisplay:10.34,2013-01-22 19:05:00,
2013-01-22 14:10:00,19.4,-3.8,30.01,ENE,70,5.0,17.0,35,0.04,FEW,FEW,0.51,WeatherDisplay:10.34,2013-01-22 19:10:00,
2013-01-22 14:15:00,19.4,-3.8,30.01,ENE,72,3.0,9.0,35,0.04,FEW,FEW,0.51,WeatherDisplay:10.34,2013-01-22 19:15:00,
2013-01-22 14:20:00,19.6,-3.7,30.01,WSW,237,5.0,9.0,35,0.04,FEW,FEW,0.51,WeatherDisplay:10.34,2013-01-22 19:20:00,
2013-01-22 14:25:00,19.4,-3.8,30.01,SW,232,6.0,14.0,35,0.00,FEW,FEW,0.51,WeatherDisplay:10.34,2013-01-22 19:25:00,
2013-01-22 14:30:00,19.2,-4.0,30.01,WSW,256,9.0,13.0,35,0.00,FEW,FEW,0.51,WeatherDisplay:10.34,2013-01-22 19:30:00,
2013-01-22 14:35:00,19.2,-4.0,30.01,NNE,32,4.0,7.0,35,0.00,FEW,FEW,0.51,WeatherDisplay:10.34,2013-01-22 19:35:00,
2013-01-22 14:40:00,19.4,-3.8,30.01,SW,214,7.0,16.0,35,0.00,FEW,FEW,0.51,WeatherDisplay:10.34,2013-01-22 19:40:00,
2013-01-22 14:45:00,18.9,-4.3,30.04,North,6,8.0,14.0,35,0.00,FEW,FEW,0.51,WeatherDisplay:10.34,2013-01-22 19:45:00,
2013-01-22 14:50:00,18.1,-4.4,30.04,WNW,290,4.0,8.0,36,0.00,FEW,FEW,0.51,WeatherDisplay:10.34,2013-01-22 19:50:00,
2013-01-22 14:55:00,17.2,-3.5,30.04,NNE,16,3.0,6.0,39,0.00,FEW,FEW,0.51,WeatherDisplay:10.34,2013-01-22 19:55:00,
2013-01-22 15:00:00,16.9,-1.3,30.04,NNW,347,3.0,8.0,44,0.04,RA,RA,0.55,WeatherDisplay:10.34,2013-01-22 20:00:00,
2013-01-22 15:05:00,16.7,-1.0,30.04,NNW,329,3.0,3.0,45,0.04,RA,RA,0.55,WeatherDisplay:10.34,2013-01-22 20:05:00,
2013-01-22 15:10:00,16.7,-0.1,30.04,WSW,240,4.0,7.0,47,0.04,FEW,FEW,0.55,WeatherDisplay:10.34,2013-01-22 20:10:00,
2013-01-22 15:15:00,16.5,0.2,30.04,WSW,239,3.0,3.0,48,0.08,RA,RA,0.59,WeatherDisplay:10.34,2013-01-22 20:15:00,
2013-01-22 15:20:00,16.7,0.4,30.04,NW,323,0.0,3.0,48,0.08,RA,RA,0.59,WeatherDisplay:10.34,2013-01-22 20:20:00,
2013-01-22 15:25:00,16.7,-0.1,30.04,North,356,4.0,8.0,47,0.08,FEW,FEW,0.59,WeatherDisplay:10.34,2013-01-22 20:25:00,
2013-01-22 15:30:00,16.7,-0.5,30.04,NNW,346,0.0,12.0,46,0.08,FEW,FEW,0.59,WeatherDisplay:10.34,2013-01-22 20:30:00,
2013-01-22 15:35:00,16.3,-0.4,30.04,NW,310,0.0,3.0,47,0.08,FEW,FEW,0.59,WeatherDisplay:10.34,2013-01-22 20:35:00,
2013-01-22 15:40:00,16.0,-0.7,30.05,WSW,255,4.0,6.0,47,0.08,FEW,FEW,0.59,WeatherDisplay:10.34,2013-01-22 20:40:00,
2013-01-22 15:45:00,15.6,-1.1,30.05,NW,320,3.0,5.0,47,0.08,FEW,FEW,0.59,WeatherDisplay:10.34,2013-01-22 20:45:00,
2013-01-22 15:50:00,15.8,-0.9,30.05,ESE,115,3.0,3.0,47,0.08,FEW,FEW,0.59,WeatherDisplay:10.34,2013-01-22 20:50:00,
2013-01-22 15:55:00,15.8,-1.4,30.05,WNW,301,0.0,0.0,46,0.08,FEW,FEW,0.59,WeatherDisplay:10.34,2013-01-22 20:55:00,
2013-01-22 16:00:00,15.4,-1.7,30.08,NNE,28,0.0,6.0,46,0.04,FEW,FEW,0.59,WeatherDisplay:10.34,2013-01-22 21:00:00,
2013-01-22 16:05:00,15.3,-2.3,30.08,NNE,22,3.0,0.0,45,0.04,BKN,BKN,0.59,WeatherDisplay:10.34,2013-01-22 21:05:00,
2013-01-22 16:10:00,15.3,-2.3,30.08,North,356,0.0,0.0,45,0.04,BKN,BKN,0.59,WeatherDisplay:10.34,2013-01-22 21:10:00,
2013-01-22 16:15:00,15.4,-2.2,30.08,North,356,0.0,0.0,45,0.00,BKN,BKN,0.59,WeatherDisplay:10.34,2013-01-22 21:15:00,
2013-01-22 16:20:00,15.4,-2.2,30.08,North,356,0.0,0.0,45,0.00,BKN,BKN,0.59,WeatherDisplay:10.34,2013-01-22 21:20:00,
2013-01-22 16:25:00,15.3,-2.3,30.08,North,356,0.0,2.0,45,0.00,BKN,BKN,0.59,WeatherDisplay:10.34,2013-01-22 21:25:00,
2013-01-22 16:30:00,15.4,-2.2,30.08,North,356,0.0,0.0,45,0.00,BKN,BKN,0.59,WeatherDisplay:10.34,2013-01-22 21:30:00,
2013-01-22 16:31:00,15.4,-2.2,30.08,North,356,0.0,0.0,45,0.00,BKN,BKN,0.59,WeatherDisplay:10.34,2013-01-22 21:31:00,
2013-01-22 16:37:00,15.4,-2.2,30.08,North,356,0.0,0.0,45,0.00,BKN,BKN,0.59,WeatherDisplay:10.34,2013-01-22 21:37:00,
2013-01-22 16:43:00,15.1,-2.5,30.08,North,356,0.0,2.0,45,0.00,BKN,BKN,0.59,WeatherDisplay:10.34,2013-01-22 21:43:00,
2013-01-22 16:48:00,14.9,-2.6,30.08,North,356,0.0,0.0,45,0.00,BKN,BKN,0.59,WeatherDisplay:10.34,2013-01-22 21:48:00,
2013-01-22 16:53:00,14.9,-2.6,30.08,North,356,0.0,0.0,45,0.00,BKN,BKN,0.59,WeatherDisplay:10.34,2013-01-22 21:53:00,
2013-01-22 16:58:00,14.7,-2.8,30.08,North,356,0.0,0.0,45,0.00,BKN,BKN,0.59,WeatherDisplay:10.34,2013-01-22 21:58:00,
2013-01-22 17:03:00,14.5,-3.0,30.08,North,356,0.0,0.0,45,0.00,BKN,BKN,0.59,WeatherDisplay:10.34,2013-01-22 22:03:00,
2013-01-22 17:08:00,14.5,-3.0,30.08,North,356,0.0,0.0,45,0.00,BKN,BKN,0.59,WeatherDisplay:10.34,2013-01-22 22:08:00,
2013-01-22 17:13:00,14.4,-3.1,30.08,North,356,0.0,0.0,45,0.00,BKN,BKN,0.59,WeatherDisplay:10.34,2013-01-22 22:13:00,
2013-01-22 17:18:00,14.4,-3.1,30.11,North,356,3.0,3.0,45,0.00,BKN,BKN,0.59,WeatherDisplay:10.34,2013-01-22 22:18:00,
2013-01-22 17:24:00,14.2,-3.3,30.11,North,356,0.0,0.0,45,0.00,BKN,BKN,0.59,WeatherDisplay:10.34,2013-01-22 22:24:00,
2013-01-22 17:29:00,14.2,-3.3,30.11,North,356,0.0,0.0,45,0.00,BKN,BKN,0.59,WeatherDisplay:10.34,2013-01-22 22:29:00,
2013-01-22 17:34:00,14.2,-3.3,30.11,West,268,3.0,9.0,45,0.00,BKN,BKN,0.59,WeatherDisplay:10.34,2013-01-22 22:34:00,
2013-01-22 17:39:00,13.6,-3.8,30.11,NW,323,0.0,5.0,45,0.00,BKN,BKN,0.59,WeatherDisplay:10.34,2013-01-22 22:39:00,
2013-01-22 17:44:00,13.6,-3.8,30.11,NNW,334,0.0,3.0,45,0.00,BKN,BKN,0.59,WeatherDisplay:10.34,2013-01-22 22:44:00,
2013-01-22 17:49:00,13.3,-4.1,30.11,NNW,344,3.0,7.0,45,0.00,BKN,BKN,0.59,WeatherDisplay:10.34,2013-01-22 22:49:00,
2013-01-22 17:54:00,13.6,-3.8,30.11,West,268,4.0,7.0,45,0.00,BKN,BKN,0.59,WeatherDisplay:10.34,2013-01-22 22:54:00,
2013-01-22 17:59:00,13.6,-3.8,30.14,WSW,243,3.0,6.0,45,0.00,BKN,BKN,0.59,WeatherDisplay:10.34,2013-01-22 22:59:00,
2013-01-22 18:04:00,13.6,-3.8,30.14,North,3,3.0,5.0,45,0.04,RA,RA,0.63,WeatherDisplay:10.34,2013-01-22 23:04:00,
2013-01-22 18:09:00,14.0,-2.6,30.14,North,2,3.0,6.0,47,0.04,RA,RA,0.63,WeatherDisplay:10.34,2013-01-22 23:09:00,
2013-01-22 18:14:00,14.0,-2.1,30.14,NNE,24,5.0,8.0,48,0.04,BKN,BKN,0.63,WeatherDisplay:10.34,2013-01-22 23:14:00,
2013-01-22 18:19:00,13.3,-2.8,30.14,North,4,6.0,9.0,48,0.04,BKN,BKN,0.63,WeatherDisplay:10.34,2013-01-22 23:19:00,
2013-01-22 18:25:00,13.1,-2.9,30.14,NNW,341,0.0,0.0,48,0.04,BKN,BKN,0.63,WeatherDisplay:10.34,2013-01-22 23:25:00,
2013-01-22 18:30:00,12.7,-3.3,30.15,WNW,293,0.0,2.0,48,0.04,BKN,BKN,0.63,WeatherDisplay:10.34,2013-01-22 23:30:00,
2013-01-22 18:35:00,12.4,-3.6,30.15,NNE,13,0.0,0.0,48,0.04,BKN,BKN,0.63,WeatherDisplay:10.34,2013-01-22 23:35:00,
2013-01-22 18:40:00,12.0,-3.9,30.15,NNE,13,0.0,3.0,48,0.04,BKN,BKN,0.63,WeatherDisplay:10.34,2013-01-22 23:40:00,
2013-01-22 18:45:00,11.7,-4.3,30.15,NNE,12,0.0,0.0,48,0.04,BKN,BKN,0.63,WeatherDisplay:10.34,2013-01-22 23:45:00,
2013-01-22 18:50:00,11.8,-4.1,30.15,NNE,12,3.0,3.0,48,0.08,RA,RA,0.67,WeatherDisplay:10.34,2013-01-22 23:50:00,
2013-01-22 18:55:00,12.0,-3.9,30.15,North,11,0.0,0.0,48,0.08,RA,RA,0.67,WeatherDisplay:10.34,2013-01-22 23:55:00,
2013-01-22 19:00:00,12.0,-3.9,30.15,NNE,25,0.0,6.0,48,0.08,RA,RA,0.67,WeatherDisplay:10.34,2013-01-23 00:00:00,
2013-01-22 19:05:00,12.0,-3.9,30.15,NNE,26,0.0,2.0,48,0.08,RA,RA,0.71,WeatherDisplay:10.34,2013-01-23 00:05:00,
2013-01-22 19:10:00,12.0,-3.9,30.15,NNE,26,0.0,3.0,48,0.08,RA,RA,0.71,WeatherDisplay:10.34,2013-01-23 00:10:00,
2013-01-22 19:15:00,11.7,-4.3,30.18,NNE,26,0.0,3.0,48,0.08,CLR,CLR,0.71,WeatherDisplay:10.34,2013-01-23 00:15:00,
2013-01-22 19:20:00,11.5,-4.4,30.18,NNE,26,0.0,3.0,48,0.08,CLR,CLR,0.71,WeatherDisplay:10.34,2013-01-23 00:20:00,
2013-01-22 19:25:00,11.3,-4.6,30.18,NNE,26,0.0,0.0,48,0.08,CLR,CLR,0.71,WeatherDisplay:10.34,2013-01-23 00:25:00,
2013-01-22 19:30:00,10.9,-4.9,30.18,NNE,26,0.0,0.0,48,0.08,CLR,CLR,0.71,WeatherDisplay:10.34,2013-01-23 00:30:00,
2013-01-22 19:35:00,10.8,-5.1,30.18,NNE,13,3.0,6.0,48,0.08,CLR,CLR,0.71,WeatherDisplay:10.34,2013-01-23 00:35:00,
2013-01-22 19:40:00,10.8,-5.1,30.18,NNE,13,0.0,0.0,48,0.08,CLR,CLR,0.71,WeatherDisplay:10.34,2013-01-23 00:40:00,
2013-01-22 19:45:00,10.4,-5.4,30.18,NNE,13,0.0,0.0,48,0.08,CLR,CLR,0.71,WeatherDisplay:10.34,2013-01-23 00:45:00,
2013-01-22 19:50:00,10.4,-5.4,30.18,NNE,13,0.0,0.0,48,0.08,CLR,CLR,0.71,WeatherDisplay:10.34,2013-01-23 00:50:00,
2013-01-22 19:55:00,10.0,-5.8,30.18,NNE,13,0.0,0.0,48,0.04,CLR,CLR,0.71,WeatherDisplay:10.34,2013-01-23 00:55:00,
2013-01-22 20:00:00,9.9,-5.9,30.18,NNE,12,0.0,0.0,48,0.04,CLR,CLR,0.71,WeatherDisplay:10.34,2013-01-23 01:00:00,
2013-01-22 20:05:00,9.3,-6.4,30.18,NW,312,0.0,3.0,48,0.00,CLR,CLR,0.71,WeatherDisplay:10.34,2013-01-23 01:05:00,
2013-01-22 20:10:00,9.3,-6.4,30.18,NW,309,0.0,2.0,48,0.00,CLR,CLR,0.71,WeatherDisplay:10.34,2013-01-23 01:10:00,
2013-01-22 20:15:00,9.3,-6.4,30.18,West,280,0.0,0.0,48,0.00,CLR,CLR,0.71,WeatherDisplay:10.34,2013-01-23 01:15:00,
2013-01-22 20:20:00,9.5,-6.3,30.18,West,280,0.0,3.0,48,0.00,CLR,CLR,0.71,WeatherDisplay:10.34,2013-01-23 01:20:00,
2013-01-22 20:25:00,9.3,-6.4,30.18,West,279,0.0,0.0,48,0.00,CLR,CLR,0.71,WeatherDisplay:10.34,2013-01-23 01:25:00,
2013-01-22 20:30:00,9.1,-6.6,30.18,West,279,0.0,2.0,48,0.00,CLR,CLR,0.71,WeatherDisplay:10.34,2013-01-23 01:30:00,
2013-01-22 20:35:00,8.6,-7.1,30.18,West,280,0.0,0.0,48,0.00,CLR,CLR,0.71,WeatherDisplay:10.34,2013-01-23 01:35:00,
2013-01-22 20:40:00,8.6,-7.1,30.18,West,279,0.0,0.0,48,0.00,CLR,CLR,0.71,WeatherDisplay:10.34,2013-01-23 01:40:00,
2013-01-22 20:45:00,8.2,-7.4,30.18,West,279,0.0,0.0,48,0.00,CLR,CLR,0.71,WeatherDisplay:10.34,2013-01-23 01:45:00,
2013-01-22 20:50:00,8.1,-7.6,30.18,West,279,0.0,0.0,48,0.00,CLR,CLR,0.71,WeatherDisplay:10.34,2013-01-23 01:50:00,
2013-01-22 20:55:00,7.7,-7.9,30.18,West,279,0.0,0.0,48,0.00,CLR,CLR,0.71,WeatherDisplay:10.34,2013-01-23 01:55:00,
2013-01-22 21:00:00,7.5,-8.1,30.18,West,279,0.0,0.0,48,0.00,CLR,CLR,0.71,WeatherDisplay:10.34,2013-01-23 02:00:00,
2013-01-22 21:05:00,7.3,-8.3,30.18,West,279,0.0,0.0,48,0.00,CLR,CLR,0.71,WeatherDisplay:10.34,2013-01-23 02:05:00,
2013-01-22 21:10:00,7.2,-8.4,30.18,West,279,0.0,0.0,48,0.00,CLR,CLR,0.71,WeatherDisplay:10.34,2013-01-23 02:10:00,
2013-01-22 21:15:00,6.8,-8.8,30.18,West,279,0.0,3.0,48,0.00,CLR,CLR,0.71,WeatherDisplay:10.34,2013-01-23 02:15:00,
2013-01-22 21:20:00,6.8,-8.8,30.18,West,279,0.0,0.0,48,0.00,CLR,CLR,0.71,WeatherDisplay:10.34,2013-01-23 02:20:00,
2013-01-22 21:25:00,6.6,-8.9,30.18,West,279,0.0,0.0,48,0.00,CLR,CLR,0.71,WeatherDisplay:10.34,2013-01-23 02:25:00,
2013-01-22 21:30:00,6.4,-9.1,30.18,West,279,0.0,0.0,48,0.00,CLR,CLR,0.71,WeatherDisplay:10.34,2013-01-23 02:30:00,
2013-01-22 21:35:00,6.6,-8.9,30.18,West,279,0.0,2.0,48,0.00,CLR,CLR,0.71,WeatherDisplay:10.34,2013-01-23 02:35:00,
2013-01-22 21:40:00,6.8,-8.8,30.18,NNW,336,0.0,3.0,48,0.00,CLR,CLR,0.71,WeatherDisplay:10.34,2013-01-23 02:40:00,
2013-01-22 21:45:00,7.0,-8.6,30.21,NNW,331,0.0,3.0,48,0.00,CLR,CLR,0.71,WeatherDisplay:10.34,2013-01-23 02:45:00,
2013-01-22 21:50:00,7.2,-8.4,30.21,NNW,331,0.0,0.0,48,0.00,CLR,CLR,0.71,WeatherDisplay:10.34,2013-01-23 02:50:00,
2013-01-22 21:55:00,7.0,-8.6,30.21,NNW,330,0.0,2.0,48,0.00,CLR,CLR,0.71,WeatherDisplay:10.34,2013-01-23 02:55:00,
2013-01-22 22:00:00,6.6,-8.9,30.21,NNW,329,0.0,3.0,48,0.00,CLR,CLR,0.71,WeatherDisplay:10.34,2013-01-23 03:00:00,
2013-01-22 22:05:00,6.6,-8.9,30.21,NNW,329,0.0,0.0,48,0.00,CLR,CLR,0.71,WeatherDisplay:10.34,2013-01-23 03:05:00,
2013-01-22 22:10:00,6.6,-8.9,30.21,NNW,330,0.0,0.0,48,0.00,CLR,CLR,0.71,WeatherDisplay:10.34,2013-01-23 03:10:00,
2013-01-22 22:15:00,6.4,-9.1,30.21,NNW,330,0.0,0.0,48,0.00,CLR,CLR,0.71,WeatherDisplay:10.34,2013-01-23 03:15:00,
2013-01-22 22:20:00,6.3,-9.3,30.21,West,268,4.0,6.0,48,0.00,CLR,CLR,0.71,WeatherDisplay:10.34,2013-01-23 03:20:00,
2013-01-22 22:25:00,6.3,-9.3,30.21,West,262,3.0,5.0,48,0.00,CLR,CLR,0.75,WeatherDisplay:10.34,2013-01-23 03:25:00,
2013-01-22 22:30:00,6.1,-9.4,30.21,West,268,3.0,5.0,48,0.08,RA,RA,0.79,WeatherDisplay:10.34,2013-01-23 03:30:00,
2013-01-22 22:35:00,6.1,-9.4,30.21,West,267,0.0,5.0,48,0.08,RA,RA,0.79,WeatherDisplay:10.34,2013-01-23 03:35:00,
2013-01-22 22:40:00,6.1,-9.4,30.21,WSW,253,0.0,0.0,48,0.08,CLR,CLR,0.79,WeatherDisplay:10.34,2013-01-23 03:40:00,
2013-01-22 22:45:00,5.9,-9.6,30.21,West,280,0.0,0.0,48,0.08,CLR,CLR,0.79,WeatherDisplay:10.34,2013-01-23 03:45:00,
2013-01-22 22:50:00,5.7,-9.8,30.21,West,280,3.0,3.0,48,0.08,CLR,CLR,0.79,WeatherDisplay:10.34,2013-01-23 03:50:00,
2013-01-22 22:55:00,5.5,-9.9,30.21,West,280,0.0,0.0,48,0.08,CLR,CLR,0.79,WeatherDisplay:10.34,2013-01-23 03:55:00,
2013-01-22 23:00:00,5.5,-9.9,30.21,West,280,0.0,0.0,48,0.08,CLR,CLR,0.79,WeatherDisplay:10.34,2013-01-23 04:00:00,
2013-01-22 23:06:00,5.4,-10.1,30.21,West,280,0.0,2.0,48,0.08,CLR,CLR,0.79,WeatherDisplay:10.34,2013-01-23 04:06:00,
2013-01-22 23:12:00,5.4,-10.1,30.21,West,280,3.0,6.0,48,0.08,CLR,CLR,0.79,WeatherDisplay:10.34,2013-01-23 04:12:00,
2013-01-22 23:17:00,5.0,-10.4,30.21,West,280,0.0,0.0,48,0.08,CLR,CLR,0.79,WeatherDisplay:10.34,2013-01-23 04:17:00,
2013-01-22 23:22:00,5.0,-10.4,30.21,West,279,0.0,0.0,48,0.08,CLR,CLR,0.79,WeatherDisplay:10.34,2013-01-23 04:22:00,
2013-01-22 23:28:00,4.8,-10.6,30.21,West,279,0.0,0.0,48,0.00,CLR,CLR,0.79,WeatherDisplay:10.34,2013-01-23 04:28:00,
2013-01-22 23:33:00,4.8,-10.6,30.21,West,273,3.0,3.0,48,0.00,CLR,CLR,0.79,WeatherDisplay:10.34,2013-01-23 04:33:00,
2013-01-22 23:38:00,5.0,-10.4,30.21,West,273,0.0,0.0,48,0.00,CLR,CLR,0.79,WeatherDisplay:10.34,2013-01-23 04:38:00,
2013-01-22 23:43:00,4.8,-10.6,30.21,West,273,0.0,3.0,48,0.00,CLR,CLR,0.79,WeatherDisplay:10.34,2013-01-23 04:43:00,
2013-01-22 23:49:00,5.2,-10.3,30.21,West,273,0.0,3.0,48,0.00,CLR,CLR,0.79,WeatherDisplay:10.34,2013-01-23 04:49:00,
2013-01-22 23:54:00,5.0,-10.4,30.21,West,273,0.0,3.0,48,0.00,CLR,CLR,0.79,WeatherDisplay:10.34,2013-01-23 04:54:00,
2013-01-22 23:59:00,5.2,-10.3,30.21,SW,226,0.0,0.0,48,0.00,CLR,CLR,0.79,WeatherDisplay:10.34,2013-01-23 04:59:00,